Terminal Aerodrome Forecast
Issued by NWS Missoula, MT

Home | Current Version | Previous Version | Text Only | Print | Product List | Glossary On
Versions: 1 2 3 4 5 6 7 8 9 10 11 12 13 14 15 16 17 18 19 20 21
000
FTUS45 KMSO 200500
TAFGPI
TAF
KGPI 200524Z 2006/2106 34009KT P6SM -SHRA FEW030 BKN080
     FM201000 VRB03KT P6SM VCSH FEW100=

USA.gov is the U.S. government's official web portal to all federal, state and local government web resources and services.